Time;durP1;ratioP1;P1;durP2;ratioP2;P2;SDS_P1;SDS_P2;PMS_P1;PMS_P2;Temp;Humidity;BMP_temperature;BMP_pressure;BME280_temperature;BME280_humidity;BME280_pressure;Samples;Min_cycle;Max_cycle;Signal;HPM_P1;HPM_P2
2023/10/17 00:00:27;;;;;;;5.95;1.10;;;22.70;49.80;;;;;;4996807;28;20042;-68
2023/10/17 00:02:43;;;;;;;5.45;1.15;;;22.70;50.30;;;;;;5011722;28;20049;-67
2023/10/17 00:05:14;;;;;;;6.18;1.40;;;22.20;50.50;;;;;;4993567;28;20038;-67
2023/10/17 00:07:47;;;;;;;4.65;1.00;;;21.70;51.70;;;;;;5005845;28;20065;-68
2023/10/17 00:10:18;;;;;;;7.00;1.40;;;21.40;51.90;;;;;;4999630;28;20048;-67
2023/10/17 00:12:50;;;;;;;6.20;1.30;;;21.20;52.30;;;;;;4994616;28;20101;-67
2023/10/17 00:15:35;;;;;;;4.75;1.00;;;21.10;52.80;;;;;;4993534;28;20089;-68
2023/10/17 00:18:11;;;;;;;5.97;1.40;;;21.20;54.00;;;;;;5007305;28;20029;-68
2023/10/17 00:20:39;;;;;;;7.82;1.13;;;22.00;53.00;;;;;;4998463;28;20383;-67
2023/10/17 00:23:07;;;;;;;6.63;2.03;;;22.20;52.30;;;;;;5000946;28;20041;-68
2023/10/17 00:25:42;;;;;;;6.43;1.20;;;22.00;52.20;;;;;;5012201;28;20014;-69
2023/10/17 00:28:15;;;;;;;6.47;1.52;;;21.70;52.00;;;;;;4993702;28;20073;-67
2023/10/17 00:30:42;;;;;;;5.53;1.00;;;21.70;53.30;;;;;;4994022;28;20423;-69
2023/10/17 00:33:09;;;;;;;8.27;1.42;;;22.00;52.10;;;;;;5003754;28;20033;-67
2023/10/17 00:35:40;;;;;;;6.55;0.95;;;21.70;52.20;;;;;;4985067;28;20030;-67
2023/10/17 00:38:07;;;;;;;4.38;0.90;;;21.70;53.70;;;;;;4995731;28;20041;-67
2023/10/17 00:43:14;;;;;;;7.70;1.00;;;21.40;56.50;;;;;;4992747;28;20034;-68
2023/10/17 00:45:45;;;;;;;4.47;1.08;;;21.70;57.10;;;;;;5000785;28;20033;-68
2023/10/17 00:48:19;;;;;;;7.20;1.17;;;22.10;56.80;;;;;;5007875;28;20503;-68
2023/10/17 00:50:50;;;;;;;4.43;0.88;;;22.50;55.80;;;;;;5004912;28;20061;-68
2023/10/17 00:53:19;;;;;;;4.22;0.85;;;23.00;55.20;;;;;;5010537;28;20034;-68
2023/10/17 00:55:51;;;;;;;5.93;1.30;;;23.30;54.20;;;;;;4991164;28;20064;-67
2023/10/17 00:58:19;;;;;;;5.25;1.08;;;23.00;52.30;;;;;;5006729;28;20172;-68
2023/10/17 01:03:47;;;;;;;6.10;1.00;;;23.70;52.10;;;;;;4988777;28;20043;-68
2023/10/17 01:08:58;;;;;;;5.13;1.10;;;23.20;51.60;;;;;;5001066;28;20479;-68
2023/10/17 01:11:29;;;;;;;7.15;1.23;;;23.50;51.50;;;;;;5006002;28;20468;-68
2023/10/17 01:13:57;;;;;;;4.47;1.00;;;23.30;50.70;;;;;;4992259;28;20037;-68
2023/10/17 01:16:25;;;;;;;5.43;0.93;;;22.80;52.00;;;;;;4990886;28;20026;-68
2023/10/17 01:18:53;;;;;;;5.35;1.40;;;23.30;51.40;;;;;;5003857;28;20701;-68
2023/10/17 01:21:21;;;;;;;6.80;0.95;;;23.70;50.90;;;;;;4997316;28;20053;-68
2023/10/17 01:23:50;;;;;;;5.10;1.10;;;23.70;50.30;;;;;;5010234;28;20028;-68
2023/10/17 01:26:23;;;;;;;7.07;1.00;;;23.80;50.20;;;;;;4983037;28;20042;-69
2023/10/17 01:28:52;;;;;;;5.90;1.02;;;23.60;49.40;;;;;;4998686;28;20105;-69
2023/10/17 01:31:23;;;;;;;7.90;1.40;;;22.90;50.60;;;;;;5005379;28;20018;-69
2023/10/17 01:33:55;;;;;;;6.20;1.00;;;22.70;51.50;;;;;;4992885;28;20065;-69
2023/10/17 01:36:23;;;;;;;5.80;0.93;;;22.40;52.90;;;;;;4993916;28;20061;-68
2023/10/17 01:38:51;;;;;;;3.38;1.05;;;22.10;55.10;;;;;;4997457;28;20034;-68
2023/10/17 01:41:19;;;;;;;5.43;1.10;;;22.10;60.30;;;;;;5003088;28;20061;-68
2023/10/17 01:43:47;;;;;;;4.50;0.80;;;21.70;62.00;;;;;;4998581;28;20068;-68
2023/10/17 01:46:21;;;;;;;4.38;1.10;;;21.90;60.60;;;;;;4977529;28;20054;-68
2023/10/17 01:48:49;;;;;;;5.57;1.35;;;21.70;65.10;;;;;;4995289;28;20036;-68
2023/10/17 01:51:17;;;;;;;5.95;0.88;;;21.70;65.40;;;;;;5003905;28;20449;-68
2023/10/17 01:53:50;;;;;;;7.22;0.90;;;22.00;64.10;;;;;;5001483;28;20149;-69
2023/10/17 01:56:28;;;;;;;5.45;1.15;;;22.10;63.10;;;;;;5008239;28;20041;-67
2023/10/17 01:59:04;;;;;;;4.15;0.85;;;22.40;61.20;;;;;;5001469;28;20084;-68
2023/10/17 02:01:36;;;;;;;3.80;0.57;;;22.90;61.90;;;;;;5007702;28;20049;-68
2023/10/17 02:04:10;;;;;;;3.47;0.95;;;23.50;58.80;;;;;;4996244;28;20418;-68
2023/10/17 02:06:38;;;;;;;3.75;0.80;;;23.80;57.20;;;;;;5013530;28;20235;-67
2023/10/17 02:12:12;;;;;;;3.40;0.95;;;24.30;55.80;;;;;;4972234;28;20111;-68
2023/10/17 02:14:41;;;;;;;3.17;0.70;;;24.30;55.40;;;;;;4962007;28;20030;-68
2023/10/17 02:17:09;;;;;;;2.25;0.70;;;24.00;54.60;;;;;;4985802;28;20049;-69
2023/10/17 02:19:38;;;;;;;3.00;0.82;;;23.60;54.60;;;;;;5005951;28;20022;-68
2023/10/17 02:22:09;;;;;;;3.35;0.65;;;23.30;55.20;;;;;;5001652;28;20027;-68
2023/10/17 02:24:38;;;;;;;3.47;1.13;;;23.00;55.10;;;;;;4999215;28;20065;-69
2023/10/17 02:27:09;;;;;;;2.63;0.80;;;22.80;56.20;;;;;;5008000;28;20053;-69
2023/10/17 02:29:39;;;;;;;4.85;0.82;;;22.20;56.60;;;;;;5012221;28;20030;-69
2023/10/17 02:32:12;;;;;;;6.30;0.77;;;21.80;58.60;;;;;;4983413;28;20026;-69
2023/10/17 02:34:40;;;;;;;3.10;0.80;;;21.60;59.00;;;;;;4991271;28;20084;-68
2023/10/17 02:37:10;;;;;;;5.10;0.80;;;21.40;60.00;;;;;;4999540;28;20032;-67
2023/10/17 02:39:38;;;;;;;4.80;0.98;;;21.60;60.50;;;;;;5002208;28;20108;-67
2023/10/17 02:42:06;;;;;;;4.47;0.80;;;22.20;59.50;;;;;;5013052;28;20026;-68
2023/10/17 02:44:35;;;;;;;5.95;0.98;;;23.10;58.30;;;;;;5009222;28;20036;-68
2023/10/17 02:47:05;;;;;;;5.97;1.08;;;23.70;55.10;;;;;;4980076;28;20067;-67
2023/10/17 02:49:37;;;;;;;3.72;0.57;;;24.40;53.60;;;;;;4998141;28;20480;-69
2023/10/17 02:52:05;;;;;;;1.30;0.25;;;25.10;52.00;;;;;;4993783;28;20452;-67
2023/10/17 02:55:23;;;;;;;4.40;0.65;;;24.80;51.70;;;;;;5007464;28;20031;-68
2023/10/17 02:57:23;;;;;;;2.05;0.40;;;24.60;51.50;;;;;;5005043;28;20049;-68
2023/10/17 02:59:56;;;;;;;3.80;0.60;;;24.20;51.80;;;;;;4995567;28;20086;-67
2023/10/17 03:02:36;;;;;;;3.50;0.50;;;24.30;51.70;;;;;;5004530;28;20025;-67
2023/10/17 03:05:11;;;;;;;4.03;0.60;;;24.60;50.40;;;;;;5005387;28;20030;-67
2023/10/17 03:07:39;;;;;;;2.97;0.80;;;24.70;50.50;;;;;;5011887;28;20042;-66
2023/10/17 03:10:07;;;;;;;2.50;0.47;;;24.60;51.50;;;;;;5013285;28;20018;-67
2023/10/17 03:12:50;;;;;;;4.82;0.60;;;24.60;52.00;;;;;;4994715;28;20041;-68
2023/10/17 03:15:18;;;;;;;4.50;0.70;;;25.10;53.00;;;;;;5010642;28;20077;-69
2023/10/17 03:17:53;;;;;;;4.60;0.50;;;25.10;51.10;;;;;;5014672;28;20030;-68
2023/10/17 03:20:36;;;;;;;3.70;0.63;;;24.70;51.10;;;;;;4994057;28;20026;-68
2023/10/17 03:23:08;;;;;;;2.40;0.70;;;24.30;52.80;;;;;;4993896;28;20034;-68
2023/10/17 03:25:40;;;;;;;4.35;0.70;;;24.00;52.20;;;;;;4992886;28;20080;-69
2023/10/17 03:28:13;;;;;;;2.60;0.60;;;23.40;53.40;;;;;;4976291;28;20108;-68
2023/10/17 03:30:47;;;;;;;1.30;0.40;;;22.80;54.50;;;;;;5006291;28;20382;-69
2023/10/17 03:33:25;;;;;;;3.33;0.98;;;22.50;56.20;;;;;;4999837;28;20022;-68
2023/10/17 03:38:32;;;;;;;6.05;1.35;;;21.00;67.10;;;;;;4992954;28;20026;-67
2023/10/17 03:41:15;;;;;;;4.68;1.13;;;19.70;75.10;;;;;;4987009;28;20463;-67
2023/10/17 03:44:02;;;;;;;4.18;0.98;;;19.20;81.90;;;;;;4994380;28;20022;-68
2023/10/17 03:46:35;;;;;;;6.50;1.17;;;18.60;88.40;;;;;;5013106;28;20068;-67
2023/10/17 03:49:04;;;;;;;5.32;0.68;;;18.40;90.60;;;;;;4995624;28;20033;-66
2023/10/17 03:51:31;;;;;;;7.07;1.10;;;18.50;90.30;;;;;;5013927;28;20022;-67
2023/10/17 03:54:07;;;;;;;8.27;1.42;;;18.50;89.60;;;;;;4998751;28;20042;-68
2023/10/17 03:56:49;;;;;;;3.50;0.80;;;18.60;87.80;;;;;;5009718;28;20091;-68
2023/10/17 03:59:21;;;;;;;5.68;1.25;;;18.80;87.00;;;;;;4999734;28;20046;-67
2023/10/17 04:01:49;;;;;;;4.93;1.02;;;19.50;83.20;;;;;;4975898;28;20069;-68
2023/10/17 04:07:06;;;;;;;1.55;0.43;;;20.80;75.30;;;;;;4995852;28;20129;-69
2023/10/17 04:12:31;;;;;;;3.17;0.20;;;21.70;67.80;;;;;;4992687;28;20532;-67
2023/10/17 04:14:59;;;;;;;1.05;0.20;;;22.00;65.30;;;;;;4993682;28;20029;-66
2023/10/17 04:17:31;;;;;;;1.27;0.28;;;22.20;64.20;;;;;;4994029;28;20030;-68
2023/10/17 04:19:59;;;;;;;2.45;0.30;;;22.30;60.40;;;;;;5004788;28;20455;-67
2023/10/17 04:22:29;;;;;;;2.22;0.30;;;22.40;58.40;;;;;;5001188;28;20053;-67
2023/10/17 04:25:19;;;;;;;2.38;0.35;;;22.30;59.20;;;;;;5000253;28;20109;-66
2023/10/17 04:27:52;;;;;;;0.77;0.30;;;21.90;60.40;;;;;;4981732;28;20033;-68
2023/10/17 04:30:22;;;;;;;1.98;0.40;;;22.40;60.30;;;;;;4997487;28;20101;-67
2023/10/17 04:32:52;;;;;;;1.40;0.40;;;22.40;58.50;;;;;;4996654;28;20427;-67
2023/10/17 04:35:21;;;;;;;1.42;0.20;;;22.40;57.80;;;;;;5002452;28;20036;-67
2023/10/17 04:38:09;;;;;;;5.20;0.43;;;22.40;58.80;;;;;;4987720;28;20105;-67
2023/10/17 04:40:50;;;;;;;2.75;0.38;;;22.30;58.30;;;;;;5011919;28;20038;-68
2023/10/17 04:46:08;;;;;;;4.80;0.50;;;21.70;58.90;;;;;;4991971;28;20494;-67
2023/10/17 04:48:36;;;;;;;2.78;0.40;;;21.50;59.40;;;;;;4999420;28;20025;-68
2023/10/17 04:54:45;;;;;;;2.97;0.57;;;20.80;64.60;;;;;;5006092;28;20080;-70
2023/10/17 04:57:05;;;;;;;2.10;0.60;;;20.60;66.10;;;;;;4996274;28;20102;-70
2023/10/17 06:19:20;;;;;;;2.70;0.50;;;19.20;69.10;;;;;;5002825;28;20037;-67
2023/10/17 06:30:48;;;;;;;6.45;0.88;;;19.30;68.80;;;;;;4993916;28;20531;-67
2023/10/17 06:35:54;;;;;;;5.22;0.90;;;19.20;68.70;;;;;;4992642;28;20038;-66
2023/10/17 06:38:27;;;;;;;5.47;1.10;;;19.30;68.40;;;;;;4996142;28;20467;-66
2023/10/17 06:41:11;;;;;;;3.63;1.08;;;18.90;69.10;;;;;;5005899;28;20034;-67
2023/10/17 06:43:40;;;;;;;5.22;1.00;;;18.90;70.20;;;;;;5004275;28;20038;-68
2023/10/17 06:46:13;;;;;;;3.75;0.70;;;18.70;70.20;;;;;;5004456;28;20124;-68
2023/10/17 06:48:49;;;;;;;7.10;1.15;;;18.70;70.70;;;;;;5009305;28;20068;-66
2023/10/17 06:53:48;;;;;;;4.20;0.55;;;18.40;72.90;;;;;;4993335;28;20085;-66
2023/10/17 06:56:19;;;;;;;6.72;0.98;;;18.30;74.20;;;;;;4993705;28;20037;-67
2023/10/17 06:58:47;;;;;;;5.35;1.30;;;18.20;74.40;;;;;;4993194;28;20054;-67
2023/10/17 07:01:27;;;;;;;5.68;1.30;;;18.20;75.30;;;;;;5001313;28;20035;-68
2023/10/17 07:03:54;;;;;;;5.57;1.08;;;18.10;75.70;;;;;;4999824;28;20037;-68
2023/10/17 07:06:25;;;;;;;6.75;1.00;;;18.10;76.50;;;;;;4993638;28;20050;-67
2023/10/17 07:08:53;;;;;;;8.25;1.55;;;18.10;75.90;;;;;;5002988;28;20029;-68
2023/10/17 07:22:14;;;;;;;9.80;1.13;;;18.10;71.00;;;;;;4997315;28;20033;-67
2023/10/17 07:24:42;;;;;;;;;;;18.00;70.50;;;;;;4993812;28;20046;-67
2023/10/17 07:27:33;;;;;;;2.25;0.80;;;18.00;71.00;;;;;;4993660;28;19913;-66
2023/10/17 07:30:10;;;;;;;4.45;0.70;;;18.00;70.90;;;;;;4994332;28;20076;-68
2023/10/17 07:32:48;;;;;;;7.72;0.70;;;18.00;71.00;;;;;;5010379;28;20025;-68
2023/10/17 07:35:22;;;;;;;6.30;0.90;;;18.00;71.40;;;;;;4999134;28;20037;-68
2023/10/17 07:37:54;;;;;;;3.63;1.00;;;17.90;71.20;;;;;;5008640;28;20053;-68
2023/10/17 07:43:07;;;;;;;5.43;1.00;;;17.80;71.00;;;;;;5003418;28;20466;-67
2023/10/17 07:45:41;;;;;;;5.38;1.00;;;17.60;72.90;;;;;;4999663;28;20037;-69
2023/10/17 07:48:20;;;;;;;6.93;0.85;;;17.60;73.30;;;;;;4992357;28;20038;-68
2023/10/17 07:50:51;;;;;;;5.60;0.77;;;17.40;74.40;;;;;;5000442;28;20483;-68
2023/10/17 07:53:22;;;;;;;5.15;1.00;;;17.20;75.00;;;;;;5010132;28;20085;-66
2023/10/17 07:56:03;;;;;;;2.92;0.70;;;17.00;75.60;;;;;;4981289;28;20519;-68
2023/10/17 07:58:41;;;;;;;1.65;0.68;;;16.90;76.20;;;;;;4995764;28;20046;-67
2023/10/17 08:01:14;;;;;;;6.07;0.93;;;16.80;76.60;;;;;;5005439;28;20030;-67
2023/10/17 08:03:51;;;;;;;5.45;0.95;;;16.60;77.30;;;;;;4993076;28;20048;-66
2023/10/17 08:06:22;;;;;;;4.47;0.57;;;16.60;77.90;;;;;;4993246;28;20037;-67
2023/10/17 08:08:50;;;;;;;4.47;1.20;;;16.70;77.90;;;;;;4997114;28;20023;-66
2023/10/17 08:11:26;;;;;;;6.90;1.10;;;16.70;78.00;;;;;;5002101;28;20042;-68
2023/10/17 08:14:08;;;;;;;10.40;0.68;;;16.70;78.50;;;;;;5012170;28;20482;-68
2023/10/17 08:16:40;;;;;;;5.57;0.85;;;16.80;79.30;;;;;;5010413;28;20029;-68
2023/10/17 08:19:13;;;;;;;5.03;0.65;;;16.60;80.00;;;;;;5001072;28;20033;-68
2023/10/17 08:22:09;;;;;;;9.43;0.88;;;16.50;81.00;;;;;;4998125;28;20038;-68
2023/10/17 08:27:17;;;;;;;4.88;1.02;;;16.70;82.20;;;;;;4998063;28;20049;-66
2023/10/17 08:30:06;;;;;;;8.50;2.97;;;16.50;83.30;;;;;;4997159;28;20049;-67
2023/10/17 08:32:39;;;;;;;6.40;1.92;;;16.40;84.30;;;;;;4994145;28;20130;-67
2023/10/17 08:35:36;;;;;;;6.70;1.48;;;16.30;85.10;;;;;;4985973;28;20384;-67
2023/10/17 08:37:59;;;;;;;6.03;0.80;;;16.30;85.40;;;;;;4992606;28;20476;-66
2023/10/17 08:43:11;;;;;;;4.07;0.70;;;16.20;86.30;;;;;;4997391;28;20041;-68
2023/10/17 08:45:46;;;;;;;4.28;0.70;;;16.20;86.50;;;;;;4978804;28;20056;-69
2023/10/17 08:48:14;;;;;;;2.90;0.70;;;16.10;86.90;;;;;;5000019;28;20042;-68
2023/10/17 08:50:43;;;;;;;3.70;0.75;;;16.10;87.20;;;;;;4997235;28;20022;-67
2023/10/17 08:53:21;;;;;;;2.47;0.70;;;16.20;87.40;;;;;;5009677;28;20022;-67
2023/10/17 08:55:50;;;;;;;6.65;1.23;;;16.20;87.50;;;;;;4987837;28;20080;-67
2023/10/17 08:58:24;;;;;;;7.22;0.88;;;16.30;87.70;;;;;;4978750;28;20427;-66
2023/10/17 09:01:07;;;;;;;2.90;0.45;;;16.30;87.70;;;;;;5000432;28;20030;-66
2023/10/17 09:03:37;;;;;;;2.90;0.40;;;16.20;88.00;;;;;;5002328;28;20037;-66
2023/10/17 09:08:59;;;;;;;2.60;0.73;;;16.10;89.00;;;;;;5008681;28;20431;-66
2023/10/17 09:11:30;;;;;;;4.18;0.68;;;16.20;89.10;;;;;;4999417;28;20109;-68
2023/10/17 09:16:42;;;;;;;3.30;0.70;;;16.30;89.10;;;;;;5000728;28;20057;-67
2023/10/17 09:19:14;;;;;;;4.38;0.75;;;16.20;89.00;;;;;;4996778;28;20031;-67
2023/10/17 09:21:49;;;;;;;4.20;0.60;;;16.30;89.00;;;;;;5003859;28;20103;-67
2023/10/17 09:24:40;;;;;;;1.73;0.47;;;16.20;89.10;;;;;;4980418;28;20392;-67
2023/10/17 09:27:14;;;;;;;3.45;1.05;;;16.00;90.00;;;;;;5001084;28;20137;-67
2023/10/17 09:29:55;;;;;;;5.32;0.90;;;16.00;90.20;;;;;;4997958;28;20034;-66
2023/10/17 09:32:37;;;;;;;2.38;0.60;;;15.90;90.50;;;;;;4992088;28;20479;-68
2023/10/17 09:35:24;;;;;;;2.83;0.68;;;15.80;90.50;;;;;;5001338;28;20113;-68
2023/10/17 09:37:56;;;;;;;5.43;0.50;;;15.80;90.80;;;;;;5000736;28;20116;-68
2023/10/17 09:40:33;;;;;;;3.00;0.82;;;15.90;90.60;;;;;;5010934;28;20029;-68
2023/10/17 09:43:01;;;;;;;2.90;0.60;;;15.80;90.60;;;;;;5000148;28;20050;-68
2023/10/17 09:45:35;;;;;;;3.42;0.60;;;15.90;90.60;;;;;;5013301;28;20026;-67
2023/10/17 09:48:05;;;;;;;4.28;0.68;;;16.00;90.30;;;;;;5000338;28;20048;-68
2023/10/17 09:50:35;;;;;;;5.55;1.00;;;15.90;90.20;;;;;;5000093;28;20029;-68
2023/10/17 09:53:17;;;;;;;5.13;0.70;;;15.80;90.10;;;;;;4995853;28;20031;-68
2023/10/17 09:55:50;;;;;;;6.00;0.50;;;15.80;90.00;;;;;;5001392;28;20029;-67
2023/10/17 09:58:23;;;;;;;1.67;0.40;;;15.90;89.50;;;;;;5004753;28;20105;-68
2023/10/17 10:01:01;;;;;;;5.78;0.75;;;15.70;90.00;;;;;;4997679;28;20030;-67
2023/10/17 10:03:30;;;;;;;3.72;0.40;;;15.70;90.20;;;;;;4995167;28;20034;-67
2023/10/17 10:06:23;;;;;;;2.13;0.35;;;15.70;90.30;;;;;;5008577;28;20411;-69
2023/10/17 10:09:24;;;;;;;4.03;0.63;;;15.70;90.20;;;;;;4995323;28;20030;-66
2023/10/17 10:11:51;;;;;;;1.75;0.60;;;15.80;90.10;;;;;;5001730;28;20029;-68
2023/10/17 10:14:27;;;;;;;5.00;0.60;;;15.60;90.40;;;;;;5001866;28;20034;-67
2023/10/17 10:17:05;;;;;;;3.05;0.65;;;15.60;90.70;;;;;;5002461;28;20494;-68
2023/10/17 10:19:42;;;;;;;1.85;0.40;;;15.60;90.80;;;;;;5004003;28;20041;-67
2023/10/17 10:22:12;;;;;;;1.65;0.40;;;15.60;90.90;;;;;;4993795;28;20550;-68
2023/10/17 10:24:40;;;;;;;2.20;0.57;;;15.70;90.70;;;;;;4995601;28;20106;-68
2023/10/17 10:27:27;;;;;;;3.20;0.45;;;15.70;90.50;;;;;;4994386;28;20484;-68
2023/10/17 10:30:17;;;;;;;2.38;0.50;;;15.90;90.40;;;;;;4994136;28;20058;-67
2023/10/17 10:32:45;;;;;;;6.03;0.68;;;16.10;90.00;;;;;;4999671;28;20475;-66
2023/10/17 10:35:14;;;;;;;9.57;0.70;;;16.10;89.70;;;;;;5013668;28;20037;-69
2023/10/17 10:37:53;;;;;;;2.13;0.50;;;16.00;89.90;;;;;;5003005;28;20038;-68
2023/10/17 10:40:26;;;;;;;6.97;0.90;;;16.00;90.10;;;;;;4995559;28;20044;-68
2023/10/17 10:42:57;;;;;;;4.40;0.70;;;15.90;90.20;;;;;;5002311;28;20045;-69
2023/10/17 10:48:32;;;;;;;6.20;0.70;;;15.70;90.30;;;;;;4990905;28;20123;-68
2023/10/17 10:51:00;;;;;;;2.72;0.50;;;15.70;90.50;;;;;;5004512;28;20022;-72
2023/10/17 10:53:33;;;;;;;7.43;1.02;;;15.60;90.50;;;;;;5006039;28;20030;-68
2023/10/17 10:56:02;;;;;;;5.43;0.85;;;15.90;90.50;;;;;;5007061;28;20018;-69
2023/10/17 10:58:33;;;;;;;3.13;0.43;;;15.80;91.50;;;;;;4988442;28;20133;-68
2023/10/17 11:01:02;;;;;;;7.25;1.30;;;15.80;91.70;;;;;;4995771;28;20069;-68
2023/10/17 11:03:33;;;;;;;4.00;0.65;;;15.70;92.00;;;;;;5000211;28;20030;-68
2023/10/17 11:06:04;;;;;;;5.57;1.00;;;15.70;92.10;;;;;;5012622;28;20034;-67
2023/10/17 11:08:41;;;;;;;5.78;1.02;;;15.80;91.90;;;;;;5004994;28;20061;-67
2023/10/17 11:11:14;;;;;;;5.78;1.02;;;15.80;91.80;;;;;;4997554;28;20045;-66
2023/10/17 11:13:45;;;;;;;6.03;0.65;;;15.60;91.90;;;;;;5009320;28;20026;-68
2023/10/17 11:16:17;;;;;;;7.97;1.38;;;15.40;92.20;;;;;;4997609;28;20034;-67
2023/10/17 11:18:44;;;;;;;5.10;0.68;;;15.40;92.20;;;;;;4998231;28;20026;-68
2023/10/17 11:21:14;;;;;;;4.30;0.63;;;15.40;92.10;;;;;;5001334;28;20199;-67
2023/10/17 11:23:50;;;;;;;8.75;0.85;;;15.40;92.20;;;;;;5004820;28;20029;-67
2023/10/17 11:26:22;;;;;;;6.88;0.82;;;15.30;92.60;;;;;;5002677;28;20030;-67
2023/10/17 11:28:52;;;;;;;4.32;0.70;;;15.30;93.20;;;;;;4996298;28;20062;-68
2023/10/17 11:31:24;;;;;;;7.50;0.70;;;15.20;93.50;;;;;;4995937;28;20085;-67
2023/10/17 11:34:12;;;;;;;3.58;0.50;;;15.00;93.80;;;;;;5013149;28;20121;-66
2023/10/17 11:36:48;;;;;;;4.55;0.52;;;14.90;94.00;;;;;;4983640;28;20129;-68
2023/10/17 11:39:16;;;;;;;6.28;0.77;;;14.80;94.10;;;;;;5003187;28;20383;-66
2023/10/17 11:41:53;;;;;;;6.20;0.77;;;14.90;94.40;;;;;;4991006;28;20087;-69
2023/10/17 11:44:25;;;;;;;4.88;0.90;;;15.00;94.40;;;;;;4996542;28;20045;-67
2023/10/17 11:47:02;;;;;;;6.90;0.73;;;14.90;94.60;;;;;;5005522;28;20042;-68
2023/10/17 11:49:39;;;;;;;2.97;0.77;;;15.00;94.50;;;;;;5004547;28;20025;-68
2023/10/17 11:52:12;;;;;;;3.05;1.08;;;15.10;94.90;;;;;;5006384;28;20025;-68
2023/10/17 11:55:01;;;;;;;2.85;0.50;;;15.10;95.20;;;;;;5013233;28;20040;-67
2023/10/17 11:57:31;;;;;;;2.35;0.60;;;14.90;95.50;;;;;;4990201;28;20523;-68
2023/10/17 12:00:31;;;;;;;5.40;0.65;;;14.90;95.90;;;;;;4984715;28;20505;-67
2023/10/17 12:02:56;;;;;;;5.60;0.98;;;14.70;96.00;;;;;;5008418;28;20041;-67
2023/10/17 12:05:27;;;;;;;5.60;0.50;;;14.60;96.30;;;;;;4995906;28;20468;-67
2023/10/17 12:07:57;;;;;;;2.50;0.60;;;14.60;96.50;;;;;;4995921;28;20046;-68
2023/10/17 12:10:36;;;;;;;5.53;0.60;;;14.60;96.50;;;;;;4999974;28;20057;-67
2023/10/17 12:13:07;;;;;;;9.00;1.05;;;14.50;96.70;;;;;;4992294;28;20038;-68
2023/10/17 12:15:34;;;;;;;2.85;0.50;;;14.60;96.70;;;;;;5004589;28;20037;-67
2023/10/17 12:18:02;;;;;;;3.90;0.65;;;14.60;96.60;;;;;;4996494;28;20041;-67
2023/10/17 12:20:30;;;;;;;3.53;0.75;;;14.70;96.80;;;;;;4997903;28;20407;-66
2023/10/17 12:22:59;;;;;;;8.52;1.23;;;14.60;97.20;;;;;;5000703;28;20468;-68
2023/10/17 12:25:27;;;;;;;5.50;0.90;;;14.60;97.20;;;;;;5004120;28;20030;-68
2023/10/17 12:27:56;;;;;;;1.83;0.60;;;14.70;97.70;;;;;;4993405;28;20042;-68
2023/10/17 12:30:27;;;;;;;6.60;1.02;;;14.60;97.70;;;;;;5000855;28;20052;-68
2023/10/17 12:32:58;;;;;;;4.65;1.05;;;14.70;97.90;;;;;;5002066;28;20402;-68
2023/10/17 12:35:27;;;;;;;7.68;1.00;;;14.70;97.90;;;;;;5010441;28;20033;-67
2023/10/17 12:37:59;;;;;;;6.05;0.93;;;14.50;97.90;;;;;;4996834;28;20080;-68
2023/10/17 12:40:30;;;;;;;3.90;0.80;;;14.50;98.30;;;;;;4977434;28;20041;-68
2023/10/17 12:42:57;;;;;;;4.05;0.80;;;14.40;98.40;;;;;;5002453;28;20025;-67
2023/10/17 12:45:25;;;;;;;5.95;0.82;;;14.20;98.50;;;;;;4999503;28;20109;-67
2023/10/17 12:47:54;;;;;;;7.43;1.20;;;14.20;98.70;;;;;;4995896;28;20034;-68
2023/10/17 12:50:21;;;;;;;5.00;1.10;;;14.20;98.80;;;;;;5004194;28;20431;-67
2023/10/17 12:52:49;;;;;;;4.18;0.60;;;14.20;98.80;;;;;;5004021;28;20066;-68
2023/10/17 12:55:19;;;;;;;5.65;0.90;;;14.10;99.00;;;;;;4998048;28;20022;-69
2023/10/17 12:57:46;;;;;;;5.45;1.08;;;14.10;99.20;;;;;;5001242;28;20029;-67
2023/10/17 13:00:15;;;;;;;6.28;0.98;;;14.10;99.40;;;;;;4995948;28;20050;-68
2023/10/17 13:02:42;;;;;;;4.05;0.90;;;14.10;99.40;;;;;;5001263;28;20022;-68
2023/10/17 13:05:12;;;;;;;5.68;0.95;;;14.10;99.50;;;;;;4992785;28;20026;-69
2023/10/17 13:07:41;;;;;;;2.42;0.82;;;14.10;99.60;;;;;;4997198;28;20045;-68
2023/10/17 13:10:11;;;;;;;8.48;1.17;;;14.10;99.60;;;;;;5002564;28;20057;-67
2023/10/17 13:12:39;;;;;;;8.35;1.08;;;14.20;99.60;;;;;;4993959;28;20041;-67
2023/10/17 13:15:08;;;;;;;3.65;0.80;;;14.10;99.50;;;;;;5008125;28;20034;-67
2023/10/17 13:17:36;;;;;;;4.18;1.20;;;14.10;99.80;;;;;;5010052;28;20040;-68
2023/10/17 13:20:10;;;;;;;3.95;0.80;;;14.10;99.80;;;;;;5008806;28;20495;-68
2023/10/17 13:22:47;;;;;;;7.22;1.33;;;14.10;99.70;;;;;;4991555;28;20085;-68
2023/10/17 13:25:18;;;;;;;8.70;1.25;;;14.10;99.70;;;;;;5010222;28;20471;-68
2023/10/17 13:27:46;;;;;;;4.38;0.80;;;14.00;99.60;;;;;;5010833;28;20037;-67
2023/10/17 13:30:13;;;;;;;8.95;1.13;;;13.90;99.70;;;;;;4983767;28;20483;-67
2023/10/17 13:32:40;;;;;;;4.55;0.73;;;13.90;99.80;;;;;;5005223;28;20554;-67
2023/10/17 13:35:08;;;;;;;4.72;0.98;;;13.90;99.70;;;;;;4996770;28;20113;-67
2023/10/17 13:37:36;;;;;;;6.22;0.80;;;14.00;99.80;;;;;;4996202;28;20026;-67
2023/10/17 13:40:04;;;;;;;7.65;1.05;;;14.00;99.70;;;;;;4995660;28;20026;-68
2023/10/17 13:42:32;;;;;;;6.75;0.80;;;14.00;99.70;;;;;;4995653;28;20057;-68
2023/10/17 13:45:00;;;;;;;5.05;1.08;;;14.00;99.80;;;;;;5006555;28;20479;-68
2023/10/17 13:47:27;;;;;;;3.80;0.63;;;14.00;99.70;;;;;;4998584;28;20050;-67
2023/10/17 13:49:55;;;;;;;5.95;0.80;;;14.00;99.70;;;;;;4995536;28;20025;-66
2023/10/17 13:52:22;;;;;;;5.97;0.90;;;14.10;99.80;;;;;;5005352;28;20061;-67
2023/10/17 13:54:49;;;;;;;2.70;0.60;;;14.20;99.70;;;;;;5012771;28;20033;-67
2023/10/17 13:57:17;;;;;;;4.43;0.80;;;14.30;99.10;;;;;;4994673;28;20109;-68
2023/10/17 13:59:47;;;;;;;5.93;1.25;;;14.30;99.10;;;;;;5014811;28;20144;-67
2023/10/17 14:02:17;;;;;;;4.80;0.70;;;14.20;99.20;;;;;;5009348;28;20050;-67
2023/10/17 14:04:45;;;;;;;7.00;0.80;;;14.40;98.30;;;;;;5000630;28;20026;-67
2023/10/17 14:07:13;;;;;;;2.10;0.60;;;14.10;98.70;;;;;;4995000;28;20121;-67
2023/10/17 14:09:41;;;;;;;4.00;0.60;;;14.00;98.90;;;;;;4996597;28;20084;-68
2023/10/17 14:12:11;;;;;;;4.03;1.00;;;13.90;99.20;;;;;;4996502;28;20062;-68
2023/10/17 14:14:39;;;;;;;5.55;0.70;;;13.80;99.40;;;;;;4998470;28;20095;-68
2023/10/17 14:17:06;;;;;;;3.40;0.70;;;13.80;99.50;;;;;;5014679;28;20100;-67
2023/10/17 14:19:39;;;;;;;3.80;0.60;;;13.80;99.60;;;;;;5013532;28;20056;-68
2023/10/17 14:22:21;;;;;;;5.75;0.70;;;13.80;99.80;;;;;;5004511;28;20472;-68
2023/10/17 14:27:23;;;;;;;3.83;0.93;;;13.90;99.80;;;;;;4996539;28;20061;-67
2023/10/17 14:29:54;;;;;;;6.15;1.23;;;13.90;99.90;;;;;;4995004;28;20081;-67
2023/10/17 14:32:23;;;;;;;3.58;0.73;;;14.10;99.90;;;;;;4995208;28;20030;-68
2023/10/17 14:34:51;;;;;;;4.55;0.70;;;14.30;99.40;;;;;;5004545;28;20040;-67
2023/10/17 14:37:19;;;;;;;6.47;0.90;;;14.30;99.50;;;;;;5014308;28;20033;-67
2023/10/17 14:39:46;;;;;;;6.35;1.00;;;14.40;99.20;;;;;;5012371;28;20069;-67
2023/10/17 14:42:14;;;;;;;6.18;1.13;;;14.60;98.50;;;;;;5004914;28;20037;-67
2023/10/17 14:44:42;;;;;;;2.40;0.52;;;14.50;98.60;;;;;;5001647;28;20033;-67
2023/10/17 14:47:09;;;;;;;6.25;0.98;;;14.30;98.90;;;;;;5012613;28;20033;-67
2023/10/17 14:49:36;;;;;;;4.68;0.70;;;14.30;99.00;;;;;;5012099;28;20376;-68
2023/10/17 14:52:04;;;;;;;4.90;0.70;;;14.20;99.00;;;;;;4994455;28;20458;-67
2023/10/17 14:54:34;;;;;;;5.68;1.33;;;14.00;99.40;;;;;;4994364;28;20035;-67
2023/10/17 14:57:06;;;;;;;7.43;0.85;;;14.00;99.50;;;;;;4996087;28;20084;-68
2023/10/17 14:59:44;;;;;;;4.70;0.90;;;13.90;99.50;;;;;;4997859;28;20058;-67
2023/10/17 15:02:11;;;;;;;5.25;1.05;;;13.80;99.70;;;;;;5013933;28;20454;-67
2023/10/17 15:04:39;;;;;;;5.60;0.82;;;13.60;99.60;;;;;;5009718;28;20038;-67
2023/10/17 15:07:06;;;;;;;5.22;0.93;;;13.60;99.80;;;;;;5013198;28;20056;-68
2023/10/17 15:09:35;;;;;;;7.03;1.02;;;13.50;99.70;;;;;;5013368;28;20034;-67
2023/10/17 15:12:05;;;;;;;4.15;0.57;;;13.60;99.50;;;;;;5011965;28;20089;-66
2023/10/17 15:14:34;;;;;;;10.32;1.05;;;13.50;99.60;;;;;;4993028;28;20506;-66
2023/10/17 15:17:01;;;;;;;5.43;0.55;;;13.40;99.70;;;;;;5000255;28;20025;-68
2023/10/17 15:19:28;;;;;;;3.35;0.70;;;13.30;99.70;;;;;;5013081;28;20061;-68
2023/10/17 15:21:56;;;;;;;6.05;0.73;;;13.20;99.90;;;;;;5010929;28;20034;-66
2023/10/17 15:24:23;;;;;;;5.00;0.60;;;13.20;99.90;;;;;;4989247;28;20368;-66
2023/10/17 15:26:51;;;;;;;3.97;0.90;;;13.20;99.90;;;;;;4993432;28;20486;-66
2023/10/17 15:29:18;;;;;;;4.57;1.02;;;13.20;99.90;;;;;;4981307;28;20072;-66
2023/10/17 15:31:49;;;;;;;3.20;0.70;;;13.20;99.90;;;;;;4998013;28;20428;-66
2023/10/17 15:34:17;;;;;;;6.20;0.70;;;13.20;99.90;;;;;;4998323;28;20442;-66
2023/10/17 15:36:44;;;;;;;5.68;1.35;;;13.30;99.90;;;;;;4993462;28;20033;-67
2023/10/17 15:39:13;;;;;;;6.78;1.42;;;13.30;99.90;;;;;;4992854;28;20029;-68
2023/10/17 15:41:45;;;;;;;2.65;0.80;;;13.30;99.90;;;;;;4993691;28;20034;-68